This is the latest recevied weather packets stored in our database for station/object IU1OLT-7. If no packets are shown the sender has not sent any weather packets the latest 10 day(s).
| Time | Temp. | Humidity | Pressure | Rain* | Wind** | Luminosity | Snow |
|---|---|---|---|---|---|---|---|
| 1777416688 | 15.56° C | 35% | 1018.7 hPa | - | - | - | - |
| 1777415788 | 15.56° C | 35% | 1018.7 hPa | - | - | - | - |
| 1777414888 | 15° C | 34% | 1018.8 hPa | - | - | - | - |
| 1777413987 | 15.56° C | 35% | 1018.8 hPa | - | - | - | - |
| 1777412187 | 15.56° C | 37% | 1018.7 hPa | - | - | - | - |
| 1777411287 | 16.11° C | 37% | 1018.7 hPa | - | - | - | - |
| 1777410387 | 15° C | 40% | 1018.8 hPa | - | - | - | - |
| 1777409487 | 14.44° C | 39% | 1018.8 hPa | - | - | - | - |
| 1777408587 | 14.44° C | 41% | 1019 hPa | - | - | - | - |
| 1777407687 | 13.89° C | 43% | 1019 hPa | - | - | - | - |
| 1777406787 | 13.89° C | 43% | 1019.1 hPa | - | - | - | - |
| 1777404987 | 17.22° C | 35% | 1019 hPa | - | - | - | - |
| 1777404087 | 16.11° C | 38% | 1018.8 hPa | - | - | - | - |
| 1777403187 | 14.44° C | 43% | 1018.8 hPa | - | - | - | - |
| 1777402287 | 15.56° C | 41% | 1018.6 hPa | - | - | - | - |
| 1777401387 | 13.89° C | 45% | 1018.5 hPa | - | - | - | - |
| 1777400487 | 14.44° C | 46% | 1018.4 hPa | - | - | - | - |
| 1777399586 | 14.44° C | 48% | 1018.4 hPa | - | - | - | - |
| 1777398686 | 17.22° C | 42% | 1018.4 hPa | - | - | - | - |
| 1777397786 | 16.11° C | 43% | 1018.4 hPa | - | - | - | - |
| 1777396886 | 20° C | 39% | 1018.3 hPa | - | - | - | - |
| 1777395986 | 18.89° C | 42% | 1018.3 hPa | - | - | - | - |
| 1777395086 | 18.89° C | 38% | 1018.3 hPa | - | - | - | - |
| 1777394186 | 22.78° C | 32% | 1018.3 hPa | - | - | - | - |
| 1777393286 | 25° C | 31% | 1018.2 hPa | - | - | - | - |
* Rain since midnight (hover to see other rain measurements)
** Current wind speed in m/s (hover to see current wind gust speed)